Time;durP1;ratioP1;P1;durP2;ratioP2;P2;SDS_P1;SDS_P2;PMS_P1;PMS_P2;Temp;Humidity;BMP_temperature;BMP_pressure;BME280_temperature;BME280_humidity;BME280_pressure;Samples;Min_cycle;Max_cycle;Signal;HPM_P1;HPM_P2
2023/12/10 00:02:17;;;;;;;;;;;;;;;7.35;100.00;99792.16;5055936;28;19913;-82
2023/12/10 00:04:43;;;;;;;;;;;;;;;7.40;100.00;99787.75;5055676;28;19959;-81
2023/12/10 00:07:09;;;;;;;;;;;;;;;7.46;100.00;99791.09;5032861;28;19925;-80
2023/12/10 00:09:34;;;;;;;;;;;;;;;7.53;100.00;99786.66;5035453;28;19920;-79
2023/12/10 00:12:00;;;;;;;;;;;;;;;7.51;100.00;99795.38;5018287;28;20367;-80
2023/12/10 00:14:25;;;;;;;;;;;;;;;7.57;100.00;99788.31;5019113;28;19921;-80
2023/12/10 00:16:51;;;;;;;;;;;;;;;7.58;100.00;99790.03;5037452;28;20010;-80
2023/12/10 00:19:16;;;;;;;;;;;;;;;7.64;100.00;99789.06;5054892;28;20383;-81
2023/12/10 00:21:41;;;;;;;;;;;;;;;7.67;100.00;99795.97;5038602;28;20003;-78
2023/12/10 00:24:07;;;;;;;;;;;;;;;7.69;100.00;99799.44;5038725;28;19967;-83
2023/12/10 00:26:32;;;;;;;;;;;;;;;7.67;100.00;99806.41;5041201;28;19993;-82
2023/12/10 00:28:57;;;;;;;;;;;;;;;7.70;100.00;99799.41;5039199;28;19921;-77
2023/12/10 00:31:23;;;;;;;;;;;;;;;7.68;100.00;99802.94;5068252;28;19913;-81
2023/12/10 00:33:50;;;;;;;;;;;;;;;7.74;100.00;99816.72;5052061;28;19956;-80
2023/12/10 00:36:18;;;;;;;;;;;;;;;7.77;100.00;99826.22;5053864;28;19921;-79
2023/12/10 00:38:45;;;;;;;;;;;;;;;7.80;100.00;99821.84;5027166;28;20004;-80
2023/12/10 00:41:11;;;;;;;;;;;;;;;7.85;100.00;99824.34;5053352;28;19921;-80
2023/12/10 00:43:39;;;;;;;;;;;;;;;7.86;100.00;99835.66;5061656;28;19916;-79
2023/12/10 00:46:05;;;;;;;;;;;;;;;7.81;100.00;99822.69;5054100;28;20011;-81
2023/12/10 00:48:30;;;;;;;;;;;;;;;7.85;100.00;99834.78;5038106;28;20441;-80
2023/12/10 00:50:55;;;;;;;;;;;;;;;7.83;100.00;99826.16;5055070;28;19924;-78
2023/12/10 00:53:21;;;;;;;;;;;;;;;7.80;100.00;99834.00;5142423;22;20282;-81
2023/12/10 00:55:46;;;;;;;;;;;;;;;7.77;100.00;99839.28;5056948;28;19924;-81
2023/12/10 00:58:13;;;;;;;;;;;;;;;7.75;100.00;99843.66;5038048;28;19921;-80
2023/12/10 01:03:06;;;;;;;;;;;;;;;7.66;100.00;99875.09;5054013;28;20329;-80
2023/12/10 01:05:32;;;;;;;;;;;;;;;7.64;100.00;99867.28;5175877;23;19924;-77
2023/12/10 01:07:57;;;;;;;;;;;;;;;7.59;100.00;99864.75;5336774;22;19933;-79
2023/12/10 01:10:23;;;;;;;;;;;;;;;7.59;100.00;99861.28;5186833;22;19925;-80
2023/12/10 01:15:29;;;;;;;;;;;;;;;7.53;100.00;99870.06;3942567;22;19981;-77
2023/12/10 01:23:18;;;;;;;;;;;;;;;7.43;100.00;99866.72;2717133;22;19928;-80
2023/12/10 01:25:44;;;;;;;;;;;;;;;7.44;100.00;99865.84;5206063;22;19919;-79
2023/12/10 01:28:09;;;;;;;;;;;;;;;7.47;100.00;99859.75;5175760;22;19931;-80
2023/12/10 01:30:35;;;;;;;;;;;;;;;7.48;100.00;99863.19;5174287;22;19939;-79
2023/12/10 01:38:10;;;;;;;;;;;;;;;7.44;100.00;99873.69;3522060;22;19929;-82
2023/12/10 01:45:54;;;;;;;;;;;;;;;7.43;100.00;99894.56;5150094;22;19928;-79
2023/12/10 01:50:55;;;;;;;;;;;;;;;7.43;100.00;99904.97;3382585;22;19922;-79
2023/12/10 01:53:22;;;;;;;;;;;;;;;7.40;100.00;99903.28;5095198;22;19925;-79
2023/12/10 01:55:50;;;;;;;;;;;;;;;7.38;100.00;99912.84;5087747;23;19934;-79
2023/12/10 02:00:53;;;;;;;;;;;;;;;7.35;100.00;99912.03;4757797;22;19950;-79
2023/12/10 02:03:21;;;;;;;;;;;;;;;7.37;100.00;99905.94;5053902;28;19939;-78
2023/12/10 02:05:46;;;;;;;;;;;;;;;7.27;100.00;99906.94;5053055;28;20047;-78
2023/12/10 02:08:12;;;;;;;;;;;;;;;7.25;100.00;99916.50;5056078;28;20019;-79
2023/12/10 02:10:37;;;;;;;;;;;;;;;7.20;100.00;99919.16;5052297;28;19925;-77
2023/12/10 02:13:04;;;;;;;;;;;;;;;7.19;100.00;99911.38;5052746;28;19920;-79
2023/12/10 02:15:30;;;;;;;;;;;;;;;7.22;100.00;99914.78;5054644;28;19928;-82
2023/12/10 02:17:55;;;;;;;;;;;;;;;7.18;100.00;99888.78;5072680;28;19930;-78
2023/12/10 02:20:20;;;;;;;;;;;;;;;7.15;100.00;99901.88;5056265;28;20397;-78
2023/12/10 02:22:46;;;;;;;;;;;;;;;7.19;100.00;99906.16;5055476;28;20397;-77
2023/12/10 02:25:15;;;;;;;;;;;;;;;7.14;100.00;99905.34;5080759;28;19913;-78
2023/12/10 02:27:41;;;;;;;;;;;;;;;7.19;100.00;99917.44;5072356;28;20286;-79
2023/12/10 02:30:06;;;;;;;;;;;;;;;7.11;100.00;99920.16;5065299;28;19921;-79
2023/12/10 02:32:31;;;;;;;;;;;;;;;7.13;100.00;99927.94;5076083;28;20019;-79
2023/12/10 02:34:59;;;;;;;;;;;;;;;7.06;100.00;99921.09;5063720;28;19935;-79
2023/12/10 02:37:24;;;;;;;;;;;;;;;7.08;100.00;99922.81;5059135;28;19990;-78
2023/12/10 02:39:50;;;;;;;;;;;;;;;7.04;100.00;99925.44;5070886;28;19920;-75
2023/12/10 02:42:16;;;;;;;;;;;;;;;7.08;100.00;99929.72;5072205;28;19916;-79
2023/12/10 02:44:41;;;;;;;;;;;;;;;7.07;100.00;99928.03;5072393;28;19916;-79
2023/12/10 02:47:06;;;;;;;;;;;;;;;7.08;100.00;99934.94;5052404;28;20033;-79
2023/12/10 02:49:32;;;;;;;;;;;;;;;7.04;100.00;99936.75;5055668;28;20400;-81
2023/12/10 02:51:58;;;;;;;;;;;;;;;7.07;100.00;99935.84;5071905;28;19921;-79
2023/12/10 02:54:23;;;;;;;;;;;;;;;7.07;100.00;99938.44;5055541;28;20355;-80
2023/12/10 02:56:48;;;;;;;;;;;;;;;7.08;100.00;99937.53;5068772;28;20027;-77
2023/12/10 02:59:14;;;;;;;;;;;;;;;7.07;100.00;99948.88;5061089;28;19916;-79
2023/12/10 03:01:39;;;;;;;;;;;;;;;7.06;100.00;99941.94;5039824;28;20019;-78
2023/12/10 03:04:06;;;;;;;;;;;;;;;7.05;100.00;99946.28;5038392;28;19949;-79
2023/12/10 03:06:32;;;;;;;;;;;;;;;7.15;100.00;99940.94;5051279;28;20436;-79
2023/12/10 03:08:57;;;;;;;;;;;;;;;7.14;100.00;99939.22;5054089;28;19963;-80
2023/12/10 03:11:22;;;;;;;;;;;;;;;7.15;100.00;99948.78;5069893;28;19916;-78
2023/12/10 03:16:50;;;;;;;;;;;;;;;7.06;100.00;99970.59;5053552;28;19919;-80
2023/12/10 03:19:16;;;;;;;;;;;;;;;7.08;100.00;99961.88;5049157;28;19916;-77
2023/12/10 03:21:41;;;;;;;;;;;;;;;7.13;100.00;99960.97;5071862;28;19913;-78
2023/12/10 03:24:06;;;;;;;;;;;;;;;7.12;100.00;99975.72;5055919;28;19917;-77
2023/12/10 03:26:32;;;;;;;;;;;;;;;7.15;100.00;99970.47;5085563;28;19921;-78
2023/12/10 03:28:57;;;;;;;;;;;;;;;7.19;100.00;99984.34;5055266;28;19916;-78
2023/12/10 03:31:22;;;;;;;;;;;;;;;7.21;100.00;99998.19;5055412;28;20285;-78
2023/12/10 03:33:50;;;;;;;;;;;;;;;7.29;100.00;99985.94;5071895;28;19956;-78
2023/12/10 03:36:16;;;;;;;;;;;;;;;7.41;100.00;99979.72;5052555;28;19956;-78
2023/12/10 03:38:41;;;;;;;;;;;;;;;7.40;100.00;99978.00;5048370;28;19960;-78
2023/12/10 03:41:06;;;;;;;;;;;;;;;7.41;100.00;99984.94;5043683;28;19924;-77
2023/12/10 03:43:32;;;;;;;;;;;;;;;7.38;99.44;99998.84;5053305;28;19921;-78
2023/12/10 03:45:57;;;;;;;;;;;;;;;7.36;100.00;99992.81;5049285;28;19924;-80
2023/12/10 03:48:22;;;;;;;;;;;;;;;7.36;100.00;99986.75;5047676;28;20023;-78
2023/12/10 03:50:47;;;;;;;;;;;;;;;7.41;100.00;99991.03;5054006;28;19942;-74
2023/12/10 03:53:13;;;;;;;;;;;;;;;7.39;100.00;100002.34;5071099;28;20378;-76
2023/12/10 03:55:38;;;;;;;;;;;;;;;7.43;99.97;99988.41;5061353;28;19921;-78
2023/12/10 03:58:03;;;;;;;;;;;;;;;7.49;100.00;99997.88;5053941;28;19923;-80
2023/12/10 04:00:29;;;;;;;;;;;;;;;7.44;98.21;100004.00;5043419;28;19943;-76
2023/12/10 04:02:56;;;;;;;;;;;;;;;7.44;100.00;100011.84;5062547;28;19925;-75
2023/12/10 04:05:21;;;;;;;;;;;;;;;7.46;98.32;99985.75;5043266;28;19917;-79
2023/12/10 04:07:50;;;;;;;;;;;;;;;7.53;98.13;100013.47;5051403;28;19928;-80
2023/12/10 04:10:15;;;;;;;;;;;;;;;7.59;96.41;100007.31;5061766;28;20069;-74
2023/12/10 04:12:40;;;;;;;;;;;;;;;7.58;96.35;100013.41;5054985;28;20433;-76
2023/12/10 04:15:06;;;;;;;;;;;;;;;7.55;98.09;100006.47;5062183;28;19916;-78
2023/12/10 04:17:31;;;;;;;;;;;;;;;7.56;97.22;100026.44;5063403;28;20312;-76
2023/12/10 04:19:56;;;;;;;;;;;;;;;7.56;96.50;100029.06;5081323;28;19920;-76
2023/12/10 04:22:22;;;;;;;;;;;;;;;7.58;96.15;100023.81;5050234;28;19920;-79
2023/12/10 04:24:48;;;;;;;;;;;;;;;7.59;96.06;100038.59;5048465;28;19970;-73
2023/12/10 04:27:13;;;;;;;;;;;;;;;7.66;96.03;100049.78;5054703;28;19928;-77
2023/12/10 04:29:38;;;;;;;;;;;;;;;7.62;94.90;100041.16;5070789;28;20378;-80
2023/12/10 04:32:05;;;;;;;;;;;;;;;7.65;95.50;100050.69;5046190;28;20357;-75
2023/12/10 04:34:30;;;;;;;;;;;;;;;7.77;92.95;100040.97;5069232;28;19931;-80
2023/12/10 04:36:56;;;;;;;;;;;;;;;7.77;92.09;100077.47;5037784;28;20356;-78
2023/12/10 04:39:22;;;;;;;;;;;;;;;7.79;92.75;100077.47;5046377;28;19924;-81
2023/12/10 04:41:48;;;;;;;;;;;;;;;7.83;93.45;100068.72;5072391;28;19912;-78
2023/12/10 04:44:13;;;;;;;;;;;;;;;7.79;94.21;100069.63;5044352;28;19928;-75
2023/12/10 04:46:38;;;;;;;;;;;;;;;7.77;93.45;100076.59;5058002;28;20031;-79
2023/12/10 04:49:04;;;;;;;;;;;;;;;7.90;92.76;100085.13;5057994;28;19940;-77
2023/12/10 04:51:30;;;;;;;;;;;;;;;7.84;92.96;100083.47;5040746;28;19920;-77
2023/12/10 04:53:55;;;;;;;;;;;;;;;7.84;92.49;100080.00;5057058;28;19966;-78
2023/12/10 04:56:20;;;;;;;;;;;;;;;7.78;92.73;100086.16;5057038;28;19970;-80
2023/12/10 04:58:46;;;;;;;;;;;;;;;7.79;93.85;100082.69;5074077;28;19966;-80
2023/12/10 05:01:11;;;;;;;;;;;;;;;7.76;92.66;100096.63;5053127;28;19932;-77
2023/12/10 05:03:36;;;;;;;;;;;;;;;7.79;93.78;100122.66;5037522;28;19924;-79
2023/12/10 05:06:02;;;;;;;;;;;;;;;7.83;92.17;100096.53;5037340;28;20328;-79
2023/12/10 05:08:27;;;;;;;;;;;;;;;7.86;91.74;100130.41;5053966;28;20018;-78
2023/12/10 05:10:52;;;;;;;;;;;;;;;7.83;92.17;100123.50;5068889;28;20019;-79
2023/12/10 05:13:18;;;;;;;;;;;;;;;7.80;92.09;100113.97;5056880;28;19924;-74
2023/12/10 05:15:43;;;;;;;;;;;;;;;7.80;93.13;100134.81;5072196;28;20011;-78
2023/12/10 05:18:08;;;;;;;;;;;;;;;7.82;93.41;100134.81;5073922;28;19912;-78
2023/12/10 05:20:34;;;;;;;;;;;;;;;7.91;90.67;100121.63;5044965;28;20365;-78
2023/12/10 05:22:59;;;;;;;;;;;;;;;7.84;92.99;100133.03;5037263;28;20413;-79
2023/12/10 05:25:27;;;;;;;;;;;;;;;7.87;90.95;100146.03;5080844;28;20464;-73
2023/12/10 05:27:52;;;;;;;;;;;;;;;7.87;91.43;100147.78;5073699;28;19966;-77
2023/12/10 05:30:18;;;;;;;;;;;;;;;7.82;92.67;100140.03;5047236;28;19924;-78
2023/12/10 05:32:44;;;;;;;;;;;;;;;7.85;91.72;100153.03;5068566;28;19920;-76
2023/12/10 05:35:09;;;;;;;;;;;;;;;7.86;91.82;100154.75;5065683;28;20420;-74
2023/12/10 05:37:35;;;;;;;;;;;;;;;7.83;92.50;100154.81;5036802;28;19920;-80
2023/12/10 05:40:00;;;;;;;;;;;;;;;7.84;92.88;100159.13;5043727;28;19925;-76
2023/12/10 05:42:25;;;;;;;;;;;;;;;7.83;93.03;100153.91;5048877;28;19927;-79
2023/12/10 05:44:51;;;;;;;;;;;;;;;7.88;91.81;100173.84;5071999;28;19923;-78
2023/12/10 05:47:16;;;;;;;;;;;;;;;7.93;91.32;100186.84;5056420;28;19963;-78
2023/12/10 05:49:42;;;;;;;;;;;;;;;7.93;90.20;100185.13;5055684;28;20262;-79
2023/12/10 05:52:09;;;;;;;;;;;;;;;7.92;90.97;100174.69;5073325;28;20340;-74
2023/12/10 05:54:34;;;;;;;;;;;;;;;7.95;91.02;100187.69;5055890;28;20131;-74
2023/12/10 05:56:59;;;;;;;;;;;;;;;7.96;90.36;100199.88;5056179;28;19920;-77
2023/12/10 05:59:26;;;;;;;;;;;;;;;8.02;88.48;100202.41;5071614;28;20387;-76
2023/12/10 06:01:51;;;;;;;;;;;;;;;8.08;88.64;100222.34;5041948;28;19925;-79
2023/12/10 06:04:16;;;;;;;;;;;;;;;8.06;89.00;100222.38;5056325;28;19923;-76
2023/12/10 06:06:41;;;;;;;;;;;;;;;8.03;90.07;100229.34;5042610;28;19947;-77
2023/12/10 06:09:09;;;;;;;;;;;;;;;8.01;88.47;100216.31;5055174;28;19917;-78
2023/12/10 06:11:34;;;;;;;;;;;;;;;8.00;90.03;100232.00;5071873;28;20413;-76
2023/12/10 06:14:02;;;;;;;;;;;;;;;8.06;89.57;100232.81;5044014;28;19964;-76
2023/12/10 06:16:27;;;;;;;;;;;;;;;7.99;89.07;100236.38;5041241;28;20027;-79
2023/12/10 06:18:55;;;;;;;;;;;;;;;7.94;89.19;100246.84;5055347;28;20409;-76
2023/12/10 06:21:20;;;;;;;;;;;;;;;7.95;90.23;100240.72;5068385;28;20432;-77
2023/12/10 06:23:48;;;;;;;;;;;;;;;7.93;89.48;100247.72;5051924;28;19976;-77
2023/12/10 06:26:13;;;;;;;;;;;;;;;7.93;89.83;100245.13;5053708;28;20394;-77
2023/12/10 06:28:38;;;;;;;;;;;;;;;7.76;90.55;100252.25;5072059;28;19983;-79
2023/12/10 06:31:04;;;;;;;;;;;;;;;7.84;89.09;100266.06;5070392;28;19917;-79
2023/12/10 06:33:30;;;;;;;;;;;;;;;7.81;90.84;100276.53;5052490;28;20374;-77
2023/12/10 06:35:55;;;;;;;;;;;;;;;7.82;90.16;100296.53;5034975;28;20294;-77
2023/12/10 06:38:21;;;;;;;;;;;;;;;7.82;91.02;100308.72;5066560;28;19916;-79
2023/12/10 06:40:46;;;;;;;;;;;;;;;7.79;90.41;100307.00;5049774;28;19920;-78
2023/12/10 06:43:12;;;;;;;;;;;;;;;7.91;89.91;100303.41;5056009;28;19925;-76
2023/12/10 06:45:37;;;;;;;;;;;;;;;7.89;90.07;100303.41;5053546;28;19921;-77
2023/12/10 06:48:03;;;;;;;;;;;;;;;7.86;90.76;100306.06;5074631;28;19923;-77
2023/12/10 06:50:30;;;;;;;;;;;;;;;7.89;89.16;100331.25;5071309;28;19927;-79
2023/12/10 06:52:58;;;;;;;;;;;;;;;7.97;89.14;100334.66;5071747;28;19917;-77
2023/12/10 06:55:23;;;;;;;;;;;;;;;7.91;88.70;100343.38;5074270;28;19916;-79
2023/12/10 06:57:49;;;;;;;;;;;;;;;7.97;88.50;100335.53;5077494;28;19966;-75
2023/12/10 07:00:14;;;;;;;;;;;;;;;7.94;89.44;100342.50;5049160;28;19921;-75
2023/12/10 07:02:40;;;;;;;;;;;;;;;8.01;88.16;100341.56;5069140;28;19924;-77
2023/12/10 07:05:05;;;;;;;;;;;;;;;7.95;89.37;100350.31;5070683;28;20431;-76
2023/12/10 07:07:31;;;;;;;;;;;;;;;7.92;89.17;100347.75;5044417;28;19931;-76
2023/12/10 07:09:57;;;;;;;;;;;;;;;7.90;89.36;100354.72;5054112;28;19924;-77
2023/12/10 07:12:22;;;;;;;;;;;;;;;7.87;89.64;100359.94;5050913;28;20301;-76
2023/12/10 07:14:47;;;;;;;;;;;;;;;7.85;90.67;100371.28;5041434;28;19916;-80
2023/12/10 07:17:14;;;;;;;;;;;;;;;7.85;89.56;100377.38;5050051;28;19931;-78
2023/12/10 07:19:39;;;;;;;;;;;;;;;7.85;89.84;100369.53;5049143;28;19930;-79
2023/12/10 07:22:04;;;;;;;;;;;;;;;7.85;90.20;100374.75;5048317;28;20406;-77
2023/12/10 07:24:31;;;;;;;;;;;;;;;7.90;88.51;100396.47;5055350;28;20442;-79
2023/12/10 07:26:57;;;;;;;;;;;;;;;7.93;88.12;100387.72;5054488;28;19943;-76
2023/12/10 07:29:22;;;;;;;;;;;;;;;7.93;86.90;100396.44;5050738;28;20354;-79
2023/12/10 07:31:47;;;;;;;;;;;;;;;7.90;88.78;100398.19;5070755;28;19995;-78
2023/12/10 07:34:14;;;;;;;;;;;;;;;7.87;89.30;100411.25;5053456;28;20394;-78
2023/12/10 07:36:39;;;;;;;;;;;;;;;7.89;89.15;100420.81;5055175;28;20285;-80
2023/12/10 07:39:07;;;;;;;;;;;;;;;7.87;89.47;100427.78;5050516;28;19928;-78
2023/12/10 07:41:32;;;;;;;;;;;;;;;7.85;89.06;100434.75;5068454;28;20433;-80
2023/12/10 07:43:58;;;;;;;;;;;;;;;7.89;88.69;100443.44;5051399;28;20057;-78
2023/12/10 07:46:23;;;;;;;;;;;;;;;7.85;89.35;100446.94;5041753;28;19950;-80
2023/12/10 07:48:49;;;;;;;;;;;;;;;7.90;88.92;100451.25;5048516;28;20301;-79
2023/12/10 07:51:14;;;;;;;;;;;;;;;7.92;88.58;100467.75;5066181;28;20404;-78
2023/12/10 07:53:42;;;;;;;;;;;;;;;7.93;88.06;100446.00;5065706;28;19920;-80
2023/12/10 07:56:07;;;;;;;;;;;;;;;7.97;87.52;100462.50;5053663;28;20297;-78
2023/12/10 07:58:33;;;;;;;;;;;;;;;7.92;87.35;100478.19;5066453;28;19916;-77
2023/12/10 08:00:58;;;;;;;;;;;;;;;7.94;88.17;100473.84;5051383;28;19921;-78
2023/12/10 08:03:24;;;;;;;;;;;;;;;7.90;88.96;100477.34;5061584;28;19924;-76
2023/12/10 08:05:50;;;;;;;;;;;;;;;7.94;88.48;100481.66;5064645;28;19921;-76
2023/12/10 08:08:16;;;;;;;;;;;;;;;7.86;89.13;100496.50;5072086;28;19954;-79
2023/12/10 08:10:41;;;;;;;;;;;;;;;7.86;88.58;100496.50;5057576;28;19920;-78
2023/12/10 08:13:07;;;;;;;;;;;;;;;7.89;87.49;100493.88;5065053;28;19927;-79
2023/12/10 08:15:32;;;;;;;;;;;;;;;7.86;89.85;100493.00;5066792;28;19920;-79
2023/12/10 08:17:58;;;;;;;;;;;;;;;7.82;89.21;100501.75;5055916;28;20019;-79
2023/12/10 08:20:23;;;;;;;;;;;;;;;7.78;91.23;100504.34;5048266;28;19925;-79
2023/12/10 08:22:48;;;;;;;;;;;;;;;7.79;90.27;100508.69;5051080;28;21022;-80
2023/12/10 08:25:14;;;;;;;;;;;;;;;7.87;89.87;100500.81;5049902;28;19920;-81
2023/12/10 08:27:39;;;;;;;;;;;;;;;7.85;90.16;100504.34;5046281;28;19932;-77
2023/12/10 08:30:05;;;;;;;;;;;;;;;7.85;89.97;100514.78;5055598;28;20015;-81
2023/12/10 08:32:30;;;;;;;;;;;;;;;7.85;89.91;100517.38;5048814;28;19933;-79
2023/12/10 08:34:58;;;;;;;;;;;;;;;7.83;90.88;100525.22;5037715;28;20007;-78
2023/12/10 08:37:23;;;;;;;;;;;;;;;7.79;91.13;100526.97;5064306;28;20453;-79
2023/12/10 08:39:49;;;;;;;;;;;;;;;7.78;91.63;100526.97;5073641;28;20007;-79
2023/12/10 08:42:15;;;;;;;;;;;;;;;7.77;92.01;100533.06;5053285;28;20314;-79
2023/12/10 08:44:40;;;;;;;;;;;;;;;7.78;92.10;100540.88;5051536;28;19924;-80
2023/12/10 08:47:08;;;;;;;;;;;;;;;7.78;92.79;100538.25;5048282;28;19932;-78
2023/12/10 08:49:33;;;;;;;;;;;;;;;7.80;92.32;100525.22;5073240;28;19927;-79
2023/12/10 08:51:59;;;;;;;;;;;;;;;7.80;92.94;100546.97;5052825;28;19932;-80
2023/12/10 08:54:24;;;;;;;;;;;;;;;7.82;92.95;100560.00;5070099;28;20108;-80
2023/12/10 08:56:49;;;;;;;;;;;;;;;7.88;92.03;100553.88;5067643;28;20338;-81
2023/12/10 08:59:15;;;;;;;;;;;;;;;7.83;92.83;100555.63;5071773;28;19920;-78
2023/12/10 09:01:41;;;;;;;;;;;;;;;7.84;93.72;100555.63;5063112;28;19931;-79
2023/12/10 09:04:06;;;;;;;;;;;;;;;7.91;92.40;100562.53;5054028;28;20381;-79
2023/12/10 09:06:32;;;;;;;;;;;;;;;7.96;93.16;100560.78;5069307;28;19959;-79
2023/12/10 09:08:57;;;;;;;;;;;;;;;8.07;93.40;100568.53;5054854;28;19924;-79
2023/12/10 09:11:23;;;;;;;;;;;;;;;8.11;92.82;100572.03;5070839;28;20426;-80
2023/12/10 09:13:48;;;;;;;;;;;;;;;8.13;92.14;100560.69;5048680;28;20012;-78
2023/12/10 09:16:14;;;;;;;;;;;;;;;8.20;92.18;100565.88;5058983;28;19926;-78
2023/12/10 09:18:39;;;;;;;;;;;;;;;8.25;92.41;100572.78;5072289;28;19919;-81
2023/12/10 09:21:07;;;;;;;;;;;;;;;8.29;91.86;100563.22;5053517;28;20019;-79
2023/12/10 09:23:34;;;;;;;;;;;;;;;8.31;91.56;100572.75;5047141;28;19921;-78
2023/12/10 09:26:00;;;;;;;;;;;;;;;8.33;90.94;100578.84;5054615;28;20294;-81
2023/12/10 09:28:25;;;;;;;;;;;;;;;8.35;91.90;100578.84;5056213;28;19925;-78
2023/12/10 09:30:50;;;;;;;;;;;;;;;8.32;92.75;100582.31;5056068;28;20381;-79
2023/12/10 09:33:15;;;;;;;;;;;;;;;8.29;91.99;100581.50;5063442;28;19913;-80
2023/12/10 09:35:41;;;;;;;;;;;;;;;8.25;93.38;100583.25;5054371;28;19924;-79
2023/12/10 09:38:08;;;;;;;;;;;;;;;9.13;90.57;100581.69;5044815;28;19917;-78
2023/12/10 09:40:34;;;;;;;;;;;;;;;9.87;88.05;100588.72;5053491;28;19921;-80
2023/12/10 09:42:59;;;;;;;;;;;;;;;9.91;88.19;100574.69;5055184;28;19981;-78
2023/12/10 09:45:24;;;;;;;;;;;;;;;9.70;88.34;100581.94;5055160;28;20370;-79
2023/12/10 09:47:50;;;;;;;;;;;;;;;9.88;89.16;100588.69;5055721;28;19958;-79
2023/12/10 09:50:17;;;;;;;;;;;;;;;10.06;87.39;100581.47;5048133;28;20339;-78
2023/12/10 09:52:44;;;;;;;;;;;;;;;10.22;87.36;100580.34;5068199;28;19967;-78
2023/12/10 09:55:09;;;;;;;;;;;;;;;10.15;88.12;100583.09;5053890;28;19951;-78
2023/12/10 09:57:35;;;;;;;;;;;;;;;10.39;86.42;100574.06;5069961;28;19924;-79
2023/12/10 10:00:00;;;;;;;;;;;;;;;11.05;84.43;100570.31;5055785;28;20293;-79
2023/12/10 10:02:32;;;;;;;;;;;;;;;12.37;82.77;100565.88;5054167;28;20344;-78
2023/12/10 10:04:57;;;;;;;;;;;;;;;12.89;78.42;100573.41;5072023;28;19923;-79
2023/12/10 10:07:23;;;;;;;;;;;;;;;13.02;76.60;100574.81;5055294;28;19921;-80
2023/12/10 10:09:48;;;;;;;;;;;;;;;12.65;80.69;100586.25;5049771;28;19930;-78
2023/12/10 10:12:14;;;;;;;;;;;;;;;12.08;81.63;100580.56;5072777;28;19923;-78
2023/12/10 10:14:52;;;;;;;;;;;;;;;11.52;82.35;100585.19;5055706;28;19948;-80
2023/12/10 10:17:24;;;;;;;;;;;;;;;11.14;86.53;100599.91;5071573;28;19934;-79
2023/12/10 10:19:50;;;;;;;;;;;;;;;10.78;86.10;100589.16;5059724;28;19912;-79
2023/12/10 10:22:17;;;;;;;;;;;;;;;10.51;88.10;100604.44;5055507;28;20321;-79
2023/12/10 10:24:42;;;;;;;;;;;;;;;10.37;88.42;100597.66;5076984;28;19951;-79
2023/12/10 10:27:08;;;;;;;;;;;;;;;10.39;88.89;100580.16;5071111;28;19960;-79
2023/12/10 10:29:33;;;;;;;;;;;;;;;10.38;88.10;100583.66;5071056;28;19935;-79
2023/12/10 10:31:59;;;;;;;;;;;;;;;11.13;87.23;100580.66;5054884;28;19928;-78
2023/12/10 10:34:24;;;;;;;;;;;;;;;12.41;81.48;100583.31;5071465;28;19916;-79
2023/12/10 10:36:51;;;;;;;;;;;;;;;13.97;79.78;100580.97;5071513;28;20290;-81
2023/12/10 10:39:18;;;;;;;;;;;;;;;15.13;70.79;100570.22;5053647;28;19940;-82
2023/12/10 10:41:43;;;;;;;;;;;;;;;15.56;68.83;100576.59;5071209;28;19917;-81
2023/12/10 10:44:09;;;;;;;;;;;;;;;15.98;70.83;100579.50;5054642;28;19920;-80
2023/12/10 10:46:34;;;;;;;;;;;;;;;16.14;67.16;100574.47;5053809;28;20301;-79
2023/12/10 10:49:00;;;;;;;;;;;;;;;16.10;66.47;100584.28;5047402;28;19925;-81
2023/12/10 10:51:27;;;;;;;;;;;;;;;16.13;64.34;100578.03;5070047;28;19924;-83
2023/12/10 10:53:54;;;;;;;;;;;;;;;16.82;66.33;100572.56;5074894;28;19920;-80
2023/12/10 10:56:20;;;;;;;;;;;;;;;17.52;61.37;100561.66;5071073;28;19920;-79
2023/12/10 10:58:45;;;;;;;;;;;;;;;17.26;59.98;100575.13;5051707;28;20442;-80
2023/12/10 11:01:33;;;;;;;;;;;;;;;17.25;64.23;100565.47;5071552;28;19927;-79
2023/12/10 11:03:59;;;;;;;;;;;;;;;17.64;62.00;100569.03;5059580;28;20025;-78
2023/12/10 11:06:24;;;;;;;;;;;;;;;18.33;63.67;100564.97;5050278;28;19974;-80
2023/12/10 11:08:59;;;;;;;;;;;;;;;19.05;60.85;100552.59;5069917;28;20041;-79
2023/12/10 11:11:25;;;;;;;;;;;;;;;19.54;56.22;100549.97;5070869;28;19917;-79
2023/12/10 11:13:50;;;;;;;;;;;;;;;19.60;58.26;100569.19;5068720;28;20021;-78
2023/12/10 11:16:16;;;;;;;;;;;;;;;19.03;61.41;100563.25;5067697;28;20003;-79
2023/12/10 11:18:56;;;;;;;;;;;;;;;17.71;59.91;100567.84;5050526;28;19959;-80
2023/12/10 11:21:21;;;;;;;;;;;;;;;16.39;67.14;100569.94;5070973;28;20394;-80
2023/12/10 11:23:46;;;;;;;;;;;;;;;15.11;69.59;100565.91;5072386;28;20051;-80
2023/12/10 11:26:13;;;;;;;;;;;;;;;14.15;68.18;100556.69;5067339;28;19921;-80
2023/12/10 11:28:38;;;;;;;;;;;;;;;13.49;71.67;100563.94;5051974;28;19935;-79
2023/12/10 11:31:04;;;;;;;;;;;;;;;13.30;72.88;100561.78;5051092;28;20357;-80
2023/12/10 11:33:29;;;;;;;;;;;;;;;13.24;73.95;100555.81;5064521;28;20162;-81
2023/12/10 11:35:57;;;;;;;;;;;;;;;13.48;75.44;100552.53;5071439;28;19924;-79
2023/12/10 11:38:22;;;;;;;;;;;;;;;14.62;72.93;100547.31;5069958;28;19920;-80
2023/12/10 11:40:47;;;;;;;;;;;;;;;15.39;70.39;100542.03;5071482;28;19916;-78
2023/12/10 11:43:14;;;;;;;;;;;;;;;16.64;69.08;100547.75;5045061;28;19920;-79
2023/12/10 11:45:39;;;;;;;;;;;;;;;17.91;64.47;100539.59;5051812;28;19925;-79
2023/12/10 11:48:05;;;;;;;;;;;;;;;19.14;62.29;100540.63;5052882;28;19924;-81
2023/12/10 11:50:34;;;;;;;;;;;;;;;19.71;55.58;100551.72;5072061;28;19959;-81
2023/12/10 11:53:03;;;;;;;;;;;;;;;20.42;57.37;100541.59;5054891;28;20374;-79
2023/12/10 11:55:29;;;;;;;;;;;;;;;20.94;57.03;100546.53;5070381;28;19921;-80
2023/12/10 11:57:58;;;;;;;;;;;;;;;21.13;56.42;100531.25;5062324;28;20378;-82
2023/12/10 12:00:24;;;;;;;;;;;;;;;21.23;56.25;100532.41;5064908;28;19916;-81
2023/12/10 12:02:52;;;;;;;;;;;;;;;21.15;51.57;100537.34;5069931;28;19973;-81
2023/12/10 12:05:18;;;;;;;;;;;;;;;19.99;58.60;100544.06;5065876;28;19924;-78
2023/12/10 12:07:44;;;;;;;;;;;;;;;18.55;61.94;100554.19;5067476;28;19921;-78
2023/12/10 12:10:10;;;;;;;;;;;;;;;16.95;66.15;100541.19;5069623;28;19923;-76
2023/12/10 12:12:42;;;;;;;;;;;;;;;15.61;65.91;100535.94;5052900;28;19924;-77
2023/12/10 12:15:11;;;;;;;;;;;;;;;14.60;73.07;100543.88;5068751;28;19920;-78
2023/12/10 12:17:37;;;;;;;;;;;;;;;13.78;77.82;100538.53;5070004;28;19920;-77
2023/12/10 12:20:15;;;;;;;;;;;;;;;12.99;74.73;100531.03;5050168;28;19920;-76
2023/12/10 12:22:41;;;;;;;;;;;;;;;12.39;78.23;100547.47;5070198;28;20040;-76
2023/12/10 12:25:06;;;;;;;;;;;;;;;12.02;82.57;100538.66;5069623;28;20011;-76
2023/12/10 12:27:32;;;;;;;;;;;;;;;11.63;78.72;100529.88;5052859;28;19925;-75
2023/12/10 12:29:57;;;;;;;;;;;;;;;11.43;82.46;100520.63;5070074;28;19999;-76
2023/12/10 12:32:22;;;;;;;;;;;;;;;11.31;82.45;100513.03;5050866;28;20374;-76
2023/12/10 12:34:48;;;;;;;;;;;;;;;11.16;82.17;100508.94;5053175;28;20456;-76
2023/12/10 12:37:13;;;;;;;;;;;;;;;11.03;82.11;100498.72;5053009;28;19927;-76
2023/12/10 12:39:38;;;;;;;;;;;;;;;10.96;82.52;100496.22;5051470;28;19927;-76
2023/12/10 12:42:04;;;;;;;;;;;;;;;10.91;83.09;100498.94;5039919;28;20267;-76
2023/12/10 12:44:29;;;;;;;;;;;;;;;10.89;83.71;100495.47;5070991;28;19931;-77
2023/12/10 12:46:54;;;;;;;;;;;;;;;10.75;84.03;100483.47;5053193;28;20499;-76
2023/12/10 12:49:19;;;;;;;;;;;;;;;10.67;83.93;100474.88;5052759;28;19928;-77
2023/12/10 12:51:45;;;;;;;;;;;;;;;10.58;84.37;100475.06;5052378;28;19932;-76
2023/12/10 12:54:10;;;;;;;;;;;;;;;10.47;84.71;100480.47;5054358;28;19943;-76
2023/12/10 12:59:13;;;;;;;;;;;;;;;10.26;86.30;100480.78;5066520;28;19936;-78
2023/12/10 13:01:39;;;;;;;;;;;;;;;10.20;86.23;100476.50;5045027;28;20020;-78
2023/12/10 13:04:05;;;;;;;;;;;;;;;10.14;86.28;100464.41;5063123;28;20006;-78
2023/12/10 13:06:30;;;;;;;;;;;;;;;10.06;86.52;100467.13;5045755;28;19931;-80
2023/12/10 13:08:56;;;;;;;;;;;;;;;10.01;87.38;100462.84;5068590;28;19925;-77